Time;durP1;ratioP1;P1;durP2;ratioP2;P2;SDS_P1;SDS_P2;PMS_P1;PMS_P2;Temp;Humidity;BMP_temperature;BMP_pressure;BME280_temperature;BME280_humidity;BME280_pressure;Samples;Min_cycle;Max_cycle;Signal;HPM_P1;HPM_P2
2022/07/31 00:02:17;;;;;;;13.47;12.37;;;15.20;99.90;;;14.25;94.82;98216.34;5068469;28;20457;-73
2022/07/31 00:04:44;;;;;;;13.60;12.50;;;15.20;99.90;;;14.17;94.90;98212.06;5067663;28;20465;-75
2022/07/31 00:07:12;;;;;;;14.30;13.00;;;15.10;99.90;;;14.15;94.90;98216.91;5068945;28;20460;-73
2022/07/31 00:09:39;;;;;;;15.60;14.40;;;15.10;99.90;;;14.15;95.28;98217.72;5066613;28;20458;-76
2022/07/31 00:12:07;;;;;;;16.23;14.80;;;15.10;99.90;;;14.11;95.37;98224.69;5066542;28;20504;-71
2022/07/31 00:14:34;;;;;;;16.17;14.87;;;15.10;99.90;;;14.28;94.80;98222.13;5063662;28;20542;-72
2022/07/31 00:17:03;;;;;;;15.30;14.03;;;15.20;99.90;;;14.26;94.67;98227.00;5065101;28;20460;-75
2022/07/31 00:19:30;;;;;;;15.60;14.20;;;15.10;99.90;;;14.27;94.45;98223.19;5065356;28;20982;-76
2022/07/31 00:21:58;;;;;;;14.23;13.03;;;15.20;99.90;;;14.23;94.05;98211.13;5061744;28;20454;-77
2022/07/31 00:24:25;;;;;;;13.93;12.83;;;15.20;99.90;;;14.13;94.11;98208.19;5063809;28;20906;-73
2022/07/31 00:26:53;;;;;;;14.73;13.60;;;15.10;99.90;;;14.20;94.33;98214.31;5066215;28;20534;-71
2022/07/31 00:29:20;;;;;;;14.63;13.47;;;15.10;99.90;;;14.17;94.29;98214.78;5058046;28;20970;-74
2022/07/31 00:31:47;;;;;;;15.67;14.17;;;15.10;99.90;;;14.17;94.55;98215.59;5063516;28;20539;-72
2022/07/31 00:34:16;;;;;;;13.50;12.47;;;15.10;99.90;;;14.07;94.95;98204.50;5072836;28;20508;-76
2022/07/31 00:36:43;;;;;;;13.37;12.27;;;15.00;99.90;;;14.06;94.84;98216.44;5068513;28;20508;-74
2022/07/31 00:39:11;;;;;;;13.20;12.13;;;15.00;99.90;;;13.99;95.46;98218.41;5068295;28;20462;-73
2022/07/31 00:41:44;;;;;;;13.40;12.37;;;15.00;99.90;;;14.07;94.91;98209.09;5067495;28;20449;-74
2022/07/31 00:44:13;;;;;;;13.80;12.60;;;15.00;99.90;;;14.09;94.46;98217.84;5064463;28;20465;-75
2022/07/31 00:46:40;;;;;;;14.13;13.03;;;15.00;99.90;;;14.22;94.05;98216.81;5058756;28;20888;-72
2022/07/31 00:49:08;;;;;;;15.00;13.60;;;15.10;99.90;;;14.24;93.78;98210.06;5063469;28;20485;-71
2022/07/31 00:51:37;;;;;;;13.60;12.50;;;15.20;99.90;;;14.13;94.26;98213.63;5080522;28;20481;-72
2022/07/31 00:54:05;;;;;;;14.10;12.90;;;15.10;99.90;;;14.12;94.45;98218.22;5074768;28;20457;-76
2022/07/31 00:56:32;;;;;;;13.37;12.27;;;15.10;99.90;;;14.18;94.86;98211.00;5061711;28;20457;-71
2022/07/31 00:59:00;;;;;;;13.07;11.90;;;15.10;99.90;;;14.21;94.80;98223.31;5060813;28;20496;-74
2022/07/31 01:01:27;;;;;;;14.30;13.10;;;15.20;99.90;;;14.20;95.28;98213.50;5064269;28;20944;-73
2022/07/31 01:03:55;;;;;;;13.37;12.17;;;15.20;99.90;;;14.17;95.75;98210.16;5065799;28;20469;-78
2022/07/31 01:06:22;;;;;;;13.50;12.50;;;15.20;99.90;;;14.03;95.85;98215.00;5065560;28;20978;-81
2022/07/31 01:08:51;;;;;;;13.57;12.57;;;15.10;99.90;;;13.97;96.46;98226.81;5065781;28;20461;-74
2022/07/31 01:11:27;;;;;;;13.03;12.03;;;15.00;99.90;;;13.88;97.30;98212.75;5063823;28;20501;-73
2022/07/31 01:14:00;;;;;;;14.23;13.03;;;14.90;99.90;;;14.01;96.81;98211.69;5075248;28;20460;-71
2022/07/31 01:16:33;;;;;;;14.73;13.57;;;15.00;99.90;;;13.98;97.37;98214.03;5079071;28;20525;-72
2022/07/31 01:19:15;;;;;;;14.03;13.03;;;15.00;99.90;;;14.11;97.29;98204.88;5061450;28;20841;-72
2022/07/31 01:21:55;;;;;;;15.53;14.23;;;15.00;99.90;;;14.04;97.79;98215.84;5062713;28;20624;-75
2022/07/31 01:24:48;;;;;;;16.73;15.47;;;15.10;99.90;;;13.96;98.15;98216.16;5065405;28;20479;-73
2022/07/31 01:27:49;;;;;;;16.20;14.90;;;15.00;99.90;;;13.88;98.83;98223.59;5063827;28;20465;-71
2022/07/31 01:30:20;;;;;;;15.67;14.40;;;14.90;99.90;;;13.82;98.76;98213.66;5061650;28;20455;-74
2022/07/31 01:32:50;;;;;;;14.83;13.53;;;14.80;99.90;;;13.82;98.76;98196.53;5109533;28;20468;-73
2022/07/31 01:35:24;;;;;;;16.00;14.77;;;14.80;99.90;;;13.87;98.57;98202.91;5078568;28;20452;-76
2022/07/31 01:37:55;;;;;;;14.80;13.70;;;14.80;99.90;;;13.89;98.35;98210.84;5072164;28;20565;-75
2022/07/31 01:40:34;;;;;;;13.80;12.50;;;14.90;99.90;;;14.06;96.94;98212.88;5064857;28;20461;-73
2022/07/31 01:43:07;;;;;;;15.60;14.30;;;15.00;99.90;;;13.92;96.62;98223.13;5067454;28;20528;-75
2022/07/31 01:45:39;;;;;;;14.67;13.47;;;15.00;99.90;;;13.78;97.34;98219.78;5061927;28;20473;-73
2022/07/31 01:48:07;;;;;;;14.50;13.40;;;14.80;99.90;;;13.68;98.13;98212.19;5075359;28;20438;-73
2022/07/31 01:50:38;;;;;;;13.93;12.77;;;14.70;99.90;;;13.63;98.74;98212.06;5065844;28;20539;-72
2022/07/31 01:53:06;;;;;;;14.67;13.43;;;14.60;99.90;;;13.56;98.68;98206.72;5056710;28;21105;-72
2022/07/31 01:55:35;;;;;;;15.67;14.47;;;14.50;99.90;;;13.65;98.02;98208.06;5067190;28;20464;-74
2022/07/31 01:58:03;;;;;;;14.97;13.67;;;14.60;99.90;;;13.73;97.72;98206.91;5057113;28;21013;-71
2022/07/31 02:00:31;;;;;;;14.27;13.07;;;14.60;99.90;;;13.77;96.55;98205.38;5063155;28;21006;-72
2022/07/31 02:03:01;;;;;;;13.47;12.47;;;14.70;99.90;;;13.73;95.25;98204.19;5063538;28;20457;-72
2022/07/31 02:05:28;;;;;;;12.80;11.80;;;14.80;99.90;;;13.77;94.97;98210.81;5061994;28;20476;-75
2022/07/31 02:07:57;;;;;;;13.20;12.17;;;14.80;99.90;;;13.81;94.46;98212.00;5065472;28;20464;-74
2022/07/31 02:10:25;;;;;;;12.67;11.77;;;14.80;99.90;;;13.80;93.71;98215.78;5064160;28;20475;-78
2022/07/31 02:12:53;;;;;;;13.80;12.60;;;14.80;99.90;;;13.84;93.40;98213.44;5062563;28;20525;-73
2022/07/31 02:15:22;;;;;;;13.47;12.27;;;14.90;99.90;;;13.87;93.17;98216.50;5060469;28;20860;-73
2022/07/31 02:17:51;;;;;;;12.47;11.57;;;14.90;99.90;;;13.87;93.01;98213.78;5062389;28;20450;-73
2022/07/31 02:20:21;;;;;;;11.80;10.87;;;14.90;99.90;;;13.90;92.94;98217.91;5064666;28;20460;-76
2022/07/31 02:22:49;;;;;;;11.83;10.93;;;14.90;99.90;;;13.85;92.75;98226.75;5074943;28;20485;-73
2022/07/31 02:25:16;;;;;;;12.00;11.10;;;14.90;99.90;;;13.88;92.16;98212.75;5063244;28;20507;-78
2022/07/31 02:27:44;;;;;;;12.40;11.40;;;14.90;99.90;;;13.43;91.55;98145.28;5097173;28;20464;-72
2022/07/31 02:30:12;;;;;;;12.03;11.03;;;14.90;99.10;;;13.84;92.07;98214.25;5063363;28;20548;-73
2022/07/31 02:32:41;;;;;;;12.23;11.33;;;14.90;99.70;;;13.76;91.94;98209.16;5065430;28;20457;-72
2022/07/31 02:35:09;;;;;;;11.10;10.17;;;14.80;99.30;;;13.77;91.63;98216.25;5067458;28;20463;-73
2022/07/31 02:37:39;;;;;;;12.20;11.20;;;14.80;99.50;;;13.58;91.69;98205.44;5064531;28;22298;-73
2022/07/31 02:40:12;;;;;;;12.27;11.37;;;14.70;99.50;;;13.53;92.00;98197.16;5065275;28;20446;-73
2022/07/31 02:42:41;;;;;;;13.57;12.37;;;14.60;99.90;;;13.21;91.70;98159.34;5077018;28;20455;-74
2022/07/31 02:45:10;;;;;;;13.43;12.13;;;14.60;99.90;;;13.56;91.35;98206.72;5060457;28;20852;-73
2022/07/31 02:47:38;;;;;;;12.93;11.93;;;14.60;99.30;;;13.46;91.89;98205.38;5070507;28;20502;-73
2022/07/31 02:50:07;;;;;;;12.70;11.80;;;14.50;99.90;;;13.15;91.72;98160.28;5065935;28;20465;-73
2022/07/31 02:52:34;;;;;;;12.00;10.90;;;14.50;99.90;;;13.39;92.32;98211.91;5066287;28;20804;-72
2022/07/31 02:55:06;;;;;;;13.33;12.07;;;14.50;99.90;;;13.35;92.02;98208.84;5063338;28;20460;-72
2022/07/31 02:57:34;;;;;;;12.40;11.40;;;14.40;99.90;;;13.40;92.12;98206.28;5061311;28;20448;-74
2022/07/31 03:00:01;;;;;;;12.40;11.47;;;14.40;99.90;;;13.34;91.75;98209.88;5065302;28;20519;-72
2022/07/31 03:02:29;;;;;;;12.80;11.67;;;14.40;99.80;;;13.34;91.67;98207.19;5066602;28;20457;-72
2022/07/31 03:04:56;;;;;;;12.93;11.93;;;14.40;99.40;;;13.36;91.62;98201.53;5069537;28;21007;-73
2022/07/31 03:07:24;;;;;;;12.50;11.43;;;14.40;99.60;;;13.31;91.79;98200.34;5070003;28;20465;-78
2022/07/31 03:09:51;;;;;;;13.33;12.13;;;14.30;99.90;;;13.25;91.80;98195.81;5087630;28;20826;-72
2022/07/31 03:12:20;;;;;;;13.43;12.33;;;14.30;99.70;;;13.24;91.54;98199.59;5071591;28;20483;-77
2022/07/31 03:14:48;;;;;;;13.47;12.47;;;14.30;99.20;;;13.20;91.88;98206.53;5065591;28;20460;-79
2022/07/31 03:17:15;;;;;;;12.77;11.80;;;14.20;99.50;;;13.20;91.69;98203.81;5074034;28;20471;-71
2022/07/31 03:19:43;;;;;;;14.07;12.97;;;14.20;99.60;;;13.24;91.18;98207.72;5064992;28;20465;-80
2022/07/31 03:22:11;;;;;;;13.87;12.70;;;14.20;99.00;;;13.16;91.23;98203.44;5066457;28;20481;-77
2022/07/31 03:24:38;;;;;;;13.70;12.70;;;14.20;98.60;;;13.17;91.35;98202.38;5065033;28;21135;-71
2022/07/31 03:27:05;;;;;;;13.80;12.80;;;14.20;99.40;;;13.21;91.07;98202.75;5060854;28;20445;-72
2022/07/31 03:29:39;;;;;;;12.57;11.67;;;14.20;98.70;;;13.09;91.41;98199.16;5063123;28;20452;-78
2022/07/31 03:32:08;;;;;;;12.57;11.60;;;14.20;98.70;;;12.98;92.14;98201.59;5060306;28;20456;-76
2022/07/31 03:34:35;;;;;;;13.33;12.23;;;14.10;99.20;;;12.91;91.72;98200.00;5063180;28;20549;-76
2022/07/31 03:37:02;;;;;;;14.20;12.90;;;14.00;99.00;;;12.93;91.94;98201.41;5062005;28;20452;-72
2022/07/31 03:39:30;;;;;;;13.70;12.60;;;14.00;99.50;;;12.93;92.04;98201.41;5067660;28;20543;-73
2022/07/31 03:41:57;;;;;;;14.37;13.17;;;14.00;99.70;;;12.86;92.21;98197.97;5065695;28;20491;-77
2022/07/31 03:44:26;;;;;;;14.80;13.70;;;14.00;99.30;;;12.83;91.85;98201.94;5062590;28;20563;-72
2022/07/31 03:46:55;;;;;;;14.67;13.47;;;14.00;99.30;;;12.82;92.19;98203.00;5095052;28;20831;-76
2022/07/31 03:49:24;;;;;;;13.43;12.33;;;13.90;99.40;;;12.87;91.78;98207.75;5066190;28;20468;-72
2022/07/31 03:51:51;;;;;;;13.67;12.57;;;13.90;99.50;;;12.88;91.38;98198.56;5058897;28;20974;-72
2022/07/31 03:54:18;;;;;;;14.60;13.50;;;14.00;99.00;;;12.85;92.04;98199.03;5061029;28;20452;-71
2022/07/31 03:56:48;;;;;;;15.07;13.60;;;13.90;99.30;;;12.84;91.44;98202.78;5062118;28;20588;-74
2022/07/31 03:59:17;;;;;;;14.67;13.47;;;13.90;98.50;;;12.93;90.65;98196.00;5064238;28;20460;-72
2022/07/31 04:01:46;;;;;;;14.37;13.23;;;14.00;98.40;;;12.94;90.53;98203.06;5064687;28;20460;-71
2022/07/31 04:04:17;;;;;;;13.37;12.27;;;14.00;97.60;;;12.98;90.47;98198.88;5072975;28;20461;-76
2022/07/31 04:06:45;;;;;;;15.33;14.23;;;14.00;98.10;;;12.98;90.02;98195.31;5076142;28;20484;-75
2022/07/31 04:09:12;;;;;;;14.37;13.23;;;14.10;97.20;;;13.00;90.22;98195.91;5073381;28;20461;-79
2022/07/31 04:11:39;;;;;;;14.33;13.17;;;14.10;97.40;;;12.93;90.59;98197.88;5088646;28;20473;-76
2022/07/31 04:14:06;;;;;;;14.87;13.57;;;14.00;97.40;;;13.03;89.87;98190.88;5078278;28;20514;-69
2022/07/31 04:16:33;;;;;;;13.67;12.50;;;14.10;97.30;;;13.13;89.80;98203.09;5104895;27;20534;-73
2022/07/31 04:19:01;;;;;;;15.30;13.70;;;14.20;97.40;;;13.17;89.23;98202.38;5071454;28;20521;-75
2022/07/31 04:21:30;;;;;;;14.90;13.60;;;14.20;96.30;;;13.32;88.86;98204.72;5063411;28;20465;-75
2022/07/31 04:23:57;;;;;;;14.43;12.93;;;14.30;96.50;;;13.48;87.65;98205.16;5062531;28;20453;-76
2022/07/31 04:26:24;;;;;;;13.90;12.90;;;14.40;95.60;;;13.56;86.71;98196.69;5063321;28;20482;-78
2022/07/31 04:28:51;;;;;;;13.70;12.47;;;14.50;94.50;;;13.48;87.39;98197.00;5063090;28;20465;-71
2022/07/31 04:31:19;;;;;;;14.63;13.30;;;14.60;94.50;;;13.95;84.64;98200.94;5063045;28;20460;-72
2022/07/31 04:33:46;;;;;;;13.33;12.13;;;14.90;93.10;;;14.41;81.98;98204.78;5062035;28;20471;-72
2022/07/31 04:36:13;;;;;;;12.83;11.90;;;15.40;91.30;;;14.98;79.71;98208.78;5063971;28;20457;-75
2022/07/31 04:38:42;;;;;;;13.60;12.60;;;16.00;88.80;;;15.52;77.12;98207.66;5067336;28;20960;-76
2022/07/31 04:41:09;;;;;;;11.87;10.90;;;16.60;86.30;;;15.92;74.52;98205.13;5066783;28;20448;-71
2022/07/31 04:43:36;;;;;;;11.60;10.50;;;17.10;84.20;;;16.29;72.65;98194.59;5065989;28;20465;-72
2022/07/31 04:46:04;;;;;;;11.87;10.87;;;17.50;82.80;;;16.78;71.36;98204.00;5066091;28;20476;-77
2022/07/31 04:48:31;;;;;;;11.33;10.33;;;17.80;82.40;;;16.68;71.08;98199.25;5071750;28;20461;-72
2022/07/31 04:50:58;;;;;;;11.60;10.70;;;18.10;81.50;;;16.64;71.25;98205.44;5067102;28;20461;-71
2022/07/31 04:53:25;;;;;;;11.50;10.47;;;18.00;81.30;;;16.18;72.17;98181.06;5066071;28;20945;-73
2022/07/31 04:58:38;;;;;;;12.30;11.40;;;17.60;81.90;;;16.20;73.42;98211.59;5065455;28;20453;-79
2022/07/31 05:01:06;;;;;;;10.70;9.57;;;17.20;83.20;;;17.13;69.80;98211.03;5066671;28;20537;-79
2022/07/31 05:03:33;;;;;;;11.33;9.93;;;17.90;81.90;;;18.25;65.56;98210.84;5067382;28;20458;-72
2022/07/31 05:06:10;;;;;;;11.50;10.30;;;18.90;80.30;;;17.69;66.29;98209.25;5064193;28;20541;-78
2022/07/31 05:08:37;;;;;;;11.70;10.50;;;19.10;78.70;;;17.08;69.24;98221.09;5062473;28;20554;-73
2022/07/31 05:11:22;;;;;;;11.20;10.23;;;18.50;79.80;;;16.70;70.25;98216.19;5065065;28;20471;-78
2022/07/31 05:13:51;;;;;;;12.20;11.20;;;18.10;80.30;;;17.62;67.37;98206.72;5061771;28;20451;-72
2022/07/31 05:16:19;;;;;;;11.43;10.53;;;18.50;80.10;;;17.50;67.07;98212.31;5065635;28;20447;-71
2022/07/31 05:18:47;;;;;;;11.50;10.60;;;18.60;79.50;;;16.87;69.46;98207.13;5063847;28;20464;-79
2022/07/31 05:21:15;;;;;;;9.67;9.07;;;18.10;80.10;;;17.42;67.79;98196.38;5063969;28;20486;-72
2022/07/31 05:23:44;;;;;;;11.13;10.03;;;18.40;79.90;;;17.79;66.38;98190.19;5062469;28;20469;-73
2022/07/31 05:26:14;;;;;;;10.70;9.90;;;18.80;79.10;;;17.56;66.82;98203.09;5064958;28;20564;-76
2022/07/31 05:28:41;;;;;;;10.77;9.97;;;18.90;78.50;;;17.19;68.49;98200.22;5064945;28;20978;-71
2022/07/31 05:31:10;;;;;;;11.70;10.80;;;18.50;79.20;;;17.02;68.99;98195.66;5062066;28;20464;-75
2022/07/31 05:33:38;;;;;;;11.90;11.10;;;18.40;79.40;;;16.56;70.86;98195.78;5055729;28;21136;-73
2022/07/31 05:36:06;;;;;;;11.90;11.00;;;18.00;80.10;;;16.36;71.60;98194.41;5094176;28;20809;-79
2022/07/31 05:38:34;;;;;;;10.87;10.07;;;17.70;80.80;;;16.02;73.53;98205.31;5061281;28;20461;-75
2022/07/31 05:41:01;;;;;;;12.10;11.30;;;17.30;81.60;;;16.02;72.96;98208.06;5062598;28;20460;-76
2022/07/31 05:43:30;;;;;;;11.80;10.90;;;17.20;82.00;;;15.74;74.63;98209.72;5071517;28;20469;-77
2022/07/31 05:45:58;;;;;;;11.73;10.83;;;17.00;82.60;;;15.96;74.27;98209.03;5055276;28;20464;-74
2022/07/31 05:48:25;;;;;;;12.30;11.30;;;17.00;83.30;;;15.86;74.68;98206.91;5064482;28;20470;-79
2022/07/31 05:50:53;;;;;;;12.47;11.43;;;17.00;83.40;;;15.94;74.59;98213.88;5058317;28;20489;-76
2022/07/31 05:53:20;;;;;;;12.30;11.20;;;17.00;83.50;;;16.18;73.90;98216.47;5092721;28;20663;-81
2022/07/31 05:55:50;;;;;;;12.07;11.20;;;17.20;83.40;;;16.41;72.93;98210.84;5061922;28;20473;-76
2022/07/31 05:58:20;;;;;;;11.57;10.67;;;17.40;83.00;;;16.47;72.71;98208.22;5062502;28;20455;-75
2022/07/31 06:00:50;;;;;;;13.50;12.20;;;17.50;82.60;;;16.63;72.29;98207.38;5063172;28;20504;-77
2022/07/31 06:03:24;;;;;;;11.33;10.43;;;17.70;82.60;;;17.16;70.03;98200.72;5060373;28;20448;-79
2022/07/31 06:05:51;;;;;;;11.40;10.57;;;18.10;81.90;;;17.31;69.23;98206.38;5067838;28;20469;-77
2022/07/31 06:08:19;;;;;;;11.63;10.73;;;18.40;81.20;;;17.22;69.44;98205.16;5065522;28;20548;-71
2022/07/31 06:10:46;;;;;;;12.00;11.10;;;18.40;80.80;;;17.73;68.80;98215.00;5077270;28;20468;-77
2022/07/31 06:13:14;;;;;;;12.40;11.50;;;18.50;81.40;;;18.10;66.68;98211.56;5056073;28;20963;-73
2022/07/31 06:15:42;;;;;;;11.93;11.00;;;18.90;80.30;;;17.95;66.93;98213.03;5065985;28;21034;-73
2022/07/31 06:18:14;;;;;;;12.00;10.97;;;19.00;79.90;;;17.96;66.81;98216.59;5065434;28;20444;-74
2022/07/31 06:20:41;;;;;;;13.13;12.03;;;18.90;80.00;;;18.01;66.91;98211.19;5062963;28;20569;-75
2022/07/31 06:23:09;;;;;;;11.20;10.37;;;18.90;80.00;;;18.01;67.10;98216.66;5064840;28;20450;-75
2022/07/31 06:25:36;;;;;;;12.40;11.00;;;19.00;80.00;;;17.52;67.41;98180.13;5057949;28;20960;-75
2022/07/31 06:28:03;;;;;;;10.87;10.00;;;18.80;79.90;;;18.04;67.30;98221.63;5062270;28;20478;-75
2022/07/31 06:30:31;;;;;;;10.67;9.77;;;18.70;80.30;;;18.49;65.52;98222.25;5075988;28;21249;-74
2022/07/31 06:32:58;;;;;;;11.03;10.23;;;19.10;79.80;;;18.43;65.05;98219.75;5091674;28;20464;-73
2022/07/31 06:35:27;;;;;;;10.03;9.37;;;19.30;79.10;;;18.54;65.10;98225.03;5064626;28;20458;-73
2022/07/31 06:37:54;;;;;;;11.00;9.90;;;19.30;79.40;;;18.67;64.21;98212.81;5056322;28;20508;-73
2022/07/31 06:40:21;;;;;;;11.20;10.40;;;19.50;78.90;;;18.58;64.89;98225.34;5057637;28;20456;-70
2022/07/31 06:42:49;;;;;;;12.20;11.20;;;19.60;78.70;;;18.38;65.06;98221.34;5060616;28;21030;-73
2022/07/31 06:45:16;;;;;;;10.60;9.90;;;19.50;78.40;;;18.44;65.16;98224.16;5064553;28;20526;-72
2022/07/31 06:47:43;;;;;;;9.53;8.87;;;19.50;78.50;;;18.54;64.81;98205.88;5060473;28;20994;-74
2022/07/31 06:50:10;;;;;;;9.53;8.83;;;19.60;78.60;;;19.53;62.28;98225.56;5067089;28;20474;-72
2022/07/31 06:52:39;;;;;;;10.23;9.53;;;20.00;78.20;;;19.45;62.14;98215.94;5062919;28;20804;-74
2022/07/31 06:55:08;;;;;;;10.70;9.90;;;20.30;77.10;;;19.32;62.95;98227.41;5067644;28;20500;-73
2022/07/31 06:57:35;;;;;;;10.13;9.43;;;20.30;77.30;;;20.21;59.65;98221.03;5110141;28;20462;-75
2022/07/31 07:00:06;;;;;;;10.73;9.70;;;20.90;76.40;;;19.84;60.11;98214.66;5081024;28;20439;-72
2022/07/31 07:02:33;;;;;;;9.90;9.10;;;21.10;75.40;;;19.67;60.96;98212.19;5080908;28;20456;-73
2022/07/31 07:05:00;;;;;;;10.60;9.90;;;20.70;75.80;;;20.19;59.55;98218.59;5061873;28;20528;-74
2022/07/31 07:07:27;;;;;;;10.30;9.40;;;21.00;75.60;;;20.71;57.91;98217.72;5062490;28;20474;-74
2022/07/31 07:09:56;;;;;;;10.60;9.80;;;21.40;74.90;;;20.01;59.22;98211.72;5070520;28;20465;-74
2022/07/31 07:12:23;;;;;;;10.00;9.10;;;21.10;74.30;;;20.62;58.07;98211.94;5097751;28;20593;-74
2022/07/31 07:14:51;;;;;;;9.63;9.00;;;21.20;74.50;;;21.23;56.50;98219.25;5061281;28;20465;-74
2022/07/31 07:17:18;;;;;;;9.77;9.07;;;21.80;74.00;;;20.72;57.63;98197.41;5059788;28;20459;-75
2022/07/31 07:19:45;;;;;;;9.00;8.30;;;21.80;73.40;;;21.82;55.31;98207.69;5056941;28;20462;-75
2022/07/31 07:22:12;;;;;;;8.87;7.93;;;22.30;73.20;;;22.82;52.31;98201.09;5068869;28;21247;-78
2022/07/31 07:24:40;;;;;;;9.63;8.20;;;23.20;71.70;;;22.66;53.09;98202.38;5066994;28;20531;-73
2022/07/31 07:27:08;;;;;;;9.07;8.37;;;23.40;71.10;;;22.46;52.75;98201.44;5064399;28;20480;-71
2022/07/31 07:29:35;;;;;;;8.43;7.83;;;23.30;70.10;;;22.67;52.21;98202.09;5064397;28;20496;-71
2022/07/31 07:32:04;;;;;;;8.23;7.47;;;23.30;69.70;;;22.11;53.93;98204.19;5061151;28;20463;-72
2022/07/31 07:34:31;;;;;;;8.63;8.03;;;23.10;69.90;;;22.14;54.11;98206.41;5058032;28;20858;-71
2022/07/31 07:36:59;;;;;;;8.00;7.40;;;23.00;70.00;;;22.03;54.07;98202.88;5066625;28;20467;-71
2022/07/31 07:39:26;;;;;;;7.90;7.40;;;22.90;69.90;;;22.05;53.62;98194.34;5065208;28;20451;-72
2022/07/31 07:41:54;;;;;;;7.40;6.80;;;23.10;69.60;;;22.21;53.03;98195.03;5065399;28;20541;-74
2022/07/31 07:44:22;;;;;;;7.03;6.50;;;23.20;68.80;;;22.23;52.39;98198.34;5064969;28;20460;-72
2022/07/31 07:46:50;;;;;;;7.20;6.60;;;23.20;68.40;;;21.86;53.95;98194.19;5064645;28;20472;-71
2022/07/31 07:49:17;;;;;;;7.37;6.77;;;22.90;68.80;;;21.54;54.77;98198.22;5064959;28;20509;-72
2022/07/31 07:51:44;;;;;;;7.10;6.50;;;22.60;69.00;;;22.24;52.57;98196.41;5065232;28;20467;-72
2022/07/31 07:54:13;;;;;;;7.30;6.70;;;22.70;68.60;;;22.77;50.73;98192.91;5061833;28;20459;-70
2022/07/31 07:56:40;;;;;;;6.40;6.00;;;23.30;67.70;;;22.33;51.83;98187.22;5058677;28;20487;-78
2022/07/31 07:59:07;;;;;;;6.57;6.17;;;23.40;67.20;;;21.89;52.39;98190.88;5062267;28;20811;-71
2022/07/31 08:01:36;;;;;;;8.13;7.03;;;23.00;67.10;;;21.82;53.70;98184.88;5061201;28;20871;-72
2022/07/31 08:04:04;;;;;;;7.47;6.87;;;22.70;68.30;;;21.89;53.54;98190.88;5060838;28;20556;-72
2022/07/31 08:06:31;;;;;;;8.30;7.63;;;22.80;68.20;;;21.91;53.30;98191.41;5058947;28;20525;-72
2022/07/31 08:08:59;;;;;;;7.87;7.27;;;22.70;68.00;;;21.67;53.77;98183.88;5061226;28;20456;-72
2022/07/31 08:11:26;;;;;;;7.80;7.10;;;22.50;68.10;;;21.86;53.21;98185.94;5063283;28;20469;-73
2022/07/31 08:13:53;;;;;;;6.63;6.23;;;22.70;68.20;;;22.18;51.79;98176.34;5065771;28;20460;-73
2022/07/31 08:16:21;;;;;;;6.47;5.97;;;22.70;67.30;;;22.40;50.52;98183.34;5065630;28;20527;-72
2022/07/31 08:18:51;;;;;;;7.13;6.70;;;23.00;66.20;;;22.53;50.05;98185.44;5065562;28;20533;-73
2022/07/31 08:21:19;;;;;;;7.23;6.73;;;23.10;65.90;;;22.51;49.58;98179.38;5065834;28;20458;-72
2022/07/31 08:23:47;;;;;;;6.77;6.20;;;23.30;65.30;;;22.68;49.88;98172.63;5062828;28;20487;-75
2022/07/31 08:26:14;;;;;;;6.57;5.90;;;23.30;65.50;;;23.18;48.38;98175.91;5063349;28;20567;-72
2022/07/31 08:28:42;;;;;;;7.30;6.70;;;23.80;64.80;;;23.93;46.62;98172.69;5063499;28;20467;-74
2022/07/31 08:31:09;;;;;;;6.43;5.77;;;24.30;64.10;;;24.27;45.49;98165.28;5066657;28;20539;-73
2022/07/31 08:33:36;;;;;;;6.07;5.57;;;24.80;62.80;;;24.25;45.15;98168.31;5072173;28;20470;-74
2022/07/31 08:36:07;;;;;;;5.63;5.17;;;24.90;62.00;;;23.94;45.29;98167.97;5075897;28;20505;-73
2022/07/31 08:38:35;;;;;;;5.67;5.17;;;24.80;61.10;;;24.09;44.32;98178.78;5077021;28;20856;-72
2022/07/31 08:41:02;;;;;;;5.17;4.77;;;24.90;60.40;;;24.46;43.57;98167.97;5078415;28;20464;-73
2022/07/31 08:43:30;;;;;;;5.67;5.20;;;25.00;60.00;;;24.98;43.54;98162.31;5066740;28;20673;-71
2022/07/31 08:46:01;;;;;;;7.40;6.07;;;25.40;60.40;;;24.10;44.23;98174.91;5059498;28;20445;-72
2022/07/31 08:48:32;;;;;;;6.13;5.73;;;25.30;59.40;;;23.77;44.73;98156.38;5066350;28;20465;-74
2022/07/31 08:51:02;;;;;;;5.33;4.83;;;24.90;59.40;;;24.16;43.83;98165.44;5078335;28;20605;-72
2022/07/31 08:53:31;;;;;;;6.30;4.97;;;24.90;59.20;;;23.81;44.16;98158.53;5059146;28;20460;-71
2022/07/31 08:55:59;;;;;;;6.33;5.83;;;24.80;58.70;;;23.60;44.86;98156.09;5065803;28;20449;-71
2022/07/31 08:58:26;;;;;;;5.80;5.30;;;24.40;58.90;;;23.66;45.07;98135.56;5059554;28;20460;-73
2022/07/31 09:00:55;;;;;;;6.23;5.83;;;24.50;59.50;;;23.73;45.05;98152.59;5063958;28;20457;-73
2022/07/31 09:03:22;;;;;;;6.57;6.07;;;24.50;59.20;;;23.71;45.05;98152.03;5050118;28;20886;-71
2022/07/31 09:05:50;;;;;;;7.33;6.53;;;24.50;59.40;;;23.13;45.28;98145.66;5063411;28;20519;-72
2022/07/31 09:08:17;;;;;;;6.27;5.77;;;24.10;58.80;;;22.71;45.79;98123.28;5063088;28;20555;-73
2022/07/31 09:10:46;;;;;;;6.40;5.90;;;23.90;58.70;;;22.96;45.65;98143.38;5081522;28;20971;-72
2022/07/31 09:13:16;;;;;;;7.13;6.53;;;23.80;58.70;;;23.15;46.03;98140.69;5053774;28;20464;-72
2022/07/31 09:15:44;;;;;;;6.20;5.70;;;23.80;59.20;;;23.46;45.61;98140.28;5064710;28;20471;-74
2022/07/31 09:18:20;;;;;;;5.80;5.10;;;24.10;59.40;;;23.40;43.56;98143.41;5067756;28;20935;-72
2022/07/31 09:20:55;;;;;;;6.53;5.97;;;24.20;57.60;;;23.42;44.21;98139.22;5060475;28;20459;-74
2022/07/31 09:23:24;;;;;;;6.07;5.47;;;24.10;57.80;;;23.53;43.96;98133.56;5057704;28;20463;-74
2022/07/31 09:25:58;;;;;;;5.07;4.67;;;24.20;57.90;;;23.60;43.00;98125.75;5060564;28;20485;-71
2022/07/31 09:28:33;;;;;;;5.53;5.10;;;24.30;57.00;;;23.48;42.81;98129.78;5055551;28;21496;-75
2022/07/31 09:31:01;;;;;;;8.13;4.70;;;24.30;56.70;;;23.76;42.53;98124.41;5061222;28;20466;-71
2022/07/31 09:33:30;;;;;;;5.93;5.43;;;24.40;56.80;;;23.80;42.91;98121.03;5059997;28;20818;-73
2022/07/31 09:35:59;;;;;;;6.00;5.40;;;24.60;56.80;;;24.08;42.96;98119.22;5059168;28;20548;-72
2022/07/31 09:38:34;;;;;;;5.20;4.57;;;24.70;57.20;;;23.87;42.13;98129.72;5060018;28;20452;-75
2022/07/31 09:41:11;;;;;;;5.20;4.80;;;24.60;56.50;;;23.91;42.19;98119.75;5067242;28;20448;-74
2022/07/31 09:43:39;;;;;;;4.47;4.07;;;24.70;56.10;;;24.07;41.66;98117.56;5062564;28;20464;-76
2022/07/31 09:46:09;;;;;;;4.90;4.60;;;24.80;56.00;;;24.47;41.72;98122.66;5068667;28;20453;-74
2022/07/31 09:48:37;;;;;;;4.47;4.17;;;25.00;56.20;;;24.48;40.75;98118.75;5069476;28;20443;-75
2022/07/31 09:51:07;;;;;;;4.50;3.90;;;25.20;55.40;;;24.50;40.32;98069.59;5062879;28;20488;-77
2022/07/31 09:53:42;;;;;;;7.73;4.50;;;25.30;55.20;;;24.84;39.73;98073.91;5070163;28;20553;-76
2022/07/31 09:56:11;;;;;;;4.87;4.37;;;25.60;55.00;;;25.17;39.33;98106.91;5077676;28;20459;-74
2022/07/31 09:58:39;;;;;;;4.37;4.07;;;25.80;54.30;;;24.82;39.59;98097.44;5088776;28;20453;-74
2022/07/31 10:01:10;;;;;;;5.20;4.77;;;25.50;54.30;;;24.79;39.96;98098.06;5073589;28;20500;-76
2022/07/31 10:03:39;;;;;;;4.67;4.33;;;25.50;54.60;;;24.72;40.54;98098.44;5069823;28;20457;-75
2022/07/31 10:06:11;;;;;;;6.00;4.60;;;25.30;55.00;;;24.64;40.08;98101.91;5067860;28;20460;-76
2022/07/31 10:08:40;;;;;;;4.37;4.07;;;25.40;54.60;;;24.45;40.93;98095.38;5067773;28;20494;-74
2022/07/31 10:11:10;;;;;;;4.47;4.07;;;25.20;54.60;;;24.61;40.17;98093.09;5065089;28;20471;-74
2022/07/31 10:13:44;;;;;;;4.20;3.80;;;25.30;54.40;;;24.19;40.54;98056.41;5062324;28;20468;-77
2022/07/31 10:16:12;;;;;;;4.67;4.27;;;25.20;54.50;;;24.42;40.56;98089.63;5064386;28;20857;-73
2022/07/31 10:18:47;;;;;;;5.93;3.73;;;25.20;54.30;;;24.80;40.36;98078.44;5063955;28;20458;-75
2022/07/31 10:21:17;;;;;;;4.50;4.20;;;25.30;54.60;;;24.33;39.14;98037.88;5066803;28;20467;-72